Latest Weather Observations for Troughton Island

IDW60801

Issued at 9:01 am WST Monday 2 May 2016 (issued every 30 minutes, with the page automatically refreshed every 10 minutes)

About weather observations | Map of weather stations | Latest weather observations for WA | Other Formats
Station Details ID: 001007 Name: TROUGHTON ISLAND Lat: -13.75 Lon: 126.15 Height: 6.0 m
Data from the previous 72 hours. | See also: Recent months at Troughton Island
Date/Time
WST
Temp
°C
App
Temp
°C
Dew
Point
Rel
Hum
%
Delta-T
°C
Wind Press
QNH
hPa
Press
MSL
hPa
Rain
since 9 am
mm
Dir
 
Spd
km/h
Gust
km/h
Spd
kts
Gust
kts
02/09:00am 32.1 36.9 26.2 71 4.2 ESE 13 15 7 8 1012.6 1012.5 0.0
02/08:30am 32.4 36.7 25.5 67 4.9 ESE 13 15 7 8 1012.8 1012.7 0.0
02/08:00am 31.7 35.5 24.0 63 5.4 SE 11 13 6 7 1012.6 1012.5 0.0
02/07:30am 31.9 36.2 24.2 63 5.4 SE 9 11 5 6 1012.5 1012.4 0.0
02/07:00am 31.4 36.2 24.5 67 4.8 S 7 9 4 5 1012.1 1012.0 0.0
02/06:30am 30.2 35.1 24.6 72 3.9 SSE 7 9 4 5 1011.5 1011.4 0.0
02/06:00am 29.9 34.5 24.8 74 3.6 SSW 9 11 5 6 1010.9 1010.8 0.0
02/05:30am 29.9 34.6 25.6 78 3.0 SSW 11 13 6 7 1010.4 1010.3 0.0
02/05:00am 30.0 34.2 25.3 76 3.3 SSW 13 15 7 8 1010.1 1010.0 0.0
02/04:30am 29.9 33.1 24.3 72 3.9 SW 15 17 8 9 1009.9 1009.8 0.0
02/04:00am 29.9 33.6 25.2 76 3.3 SSW 15 17 8 9 1009.7 1009.6 0.0
02/03:30am 29.8 33.6 25.3 77 3.2 SSW 15 17 8 9 1009.6 1009.5 0.0
02/03:00am 29.8 33.8 25.1 76 3.3 SSW 13 17 7 9 1009.7 1009.6 0.0
02/02:30am 29.8 33.9 25.8 79 2.8 SSW 15 17 8 9 1009.6 1009.5 0.0
02/02:00am 29.7 33.8 25.7 79 2.8 SSW 15 17 8 9 1009.6 1009.5 0.0
02/01:30am 29.8 34.3 25.8 79 2.8 SW 13 15 7 8 1009.8 1009.7 0.0
02/01:00am 29.8 34.1 25.5 78 3.0 SW 13 15 7 8 1010.2 1010.1 0.0
02/12:30am 29.7 34.3 25.9 80 2.7 SSW 13 15 7 8 1010.6 1010.5 0.0
02/12:00am 29.7 34.6 25.9 80 2.7 SSW 11 13 6 7 1010.9 1010.8 0.0
 
Date/Time
WST
Temp
°C
App
Temp
°C
Dew
Point
Rel
Hum
%
Delta-T
°C
Wind Press
QNH
hPa
Press
MSL
hPa
Rain
since 9 am
mm
Dir
 
Spd
km/h
Gust
km/h
Spd
kts
Gust
kts
01/11:30pm 29.8 34.3 25.8 79 2.8 SSW 13 15 7 8 1011.2 1011.1 0.0
01/11:00pm 30.0 34.1 25.7 78 3.0 SSW 15 17 8 9 1011.5 1011.4 0.0
01/10:30pm 30.1 34.4 26.1 79 2.8 SW 15 17 8 9 1011.5 1011.4 0.0
01/10:00pm 30.0 33.9 25.5 77 3.2 SW 15 17 8 9 1011.7 1011.6 0.0
01/09:30pm 30.1 34.3 25.4 76 3.3 SW 13 17 7 9 1011.9 1011.8 0.0
01/09:00pm 30.2 34.3 25.7 77 3.2 SW 15 17 8 9 1012.0 1011.9 0.0
01/08:30pm 30.1 34.6 25.8 78 3.1 SW 13 17 7 9 1012.0 1011.9 0.0
01/08:00pm 30.2 34.4 25.9 78 3.1 WSW 15 19 8 10 1011.8 1011.7 0.0
01/07:30pm 30.3 34.0 25.8 77 3.2 SW 17 19 9 10 1011.6 1011.5 0.0
01/07:00pm 30.3 33.7 25.8 77 3.2 WSW 19 20 10 11 1011.1 1011.0 0.0
01/06:30pm 30.6 34.3 25.7 75 3.5 WSW 17 20 9 11 1010.6 1010.5 0.0
01/06:00pm 30.6 33.6 24.7 71 4.1 W 17 19 9 10 1010.5 1010.4 0.0
01/05:30pm 30.7 33.5 25.3 73 3.8 W 20 24 11 13 1010.2 1010.1 0.0
01/05:00pm 31.1 33.5 25.2 71 4.2 W 22 26 12 14 1009.9 1009.8 0.0
01/04:30pm 31.6 33.5 25.0 68 4.7 W 24 28 13 15 1009.6 1009.5 0.0
01/04:00pm 32.3 34.9 26.1 70 4.4 W 24 28 13 15 1009.3 1009.2 0.0
01/03:30pm 32.5 34.8 24.5 62 5.6 W 20 24 11 13 1008.9 1008.8 0.0
01/03:00pm 32.9 35.2 24.4 61 6.0 W 20 24 11 13 1008.9 1008.8 0.0
01/02:30pm 33.3 35.1 23.3 55 6.9 W 19 22 10 12 1009.1 1009.0 0.0
01/02:00pm 33.3 35.5 23.9 58 6.6 W 19 22 10 12 1009.4 1009.3 0.0
01/01:30pm 32.9 35.6 24.1 60 6.2 W 17 20 9 11 1009.8 1009.7 0.0
01/01:00pm 33.6 36.7 24.8 60 6.2 WSW 17 20 9 11 1010.1 1010.0 0.0
01/12:30pm 33.1 35.7 24.0 59 6.4 WSW 17 20 9 11 1010.5 1010.4 0.0
01/12:00pm 33.3 36.0 24.7 60 6.1 WSW 19 20 10 11 1011.0 1010.9 0.0
01/11:30am 32.8 34.1 24.0 60 6.1 SW 24 28 13 15 1011.2 1011.1 0.0
01/11:00am 33.1 35.3 24.8 61 5.9 SW 22 28 12 15 1011.8 1011.7 0.0
01/10:30am 32.6 34.8 24.9 64 5.4 SW 22 28 12 15 1012.1 1012.0 0.0
01/10:00am 32.0 34.2 24.8 65 5.1 SW 22 28 12 15 1012.4 1012.3 0.0
01/09:30am 32.2 34.2 24.5 64 5.4 SW 22 28 12 15 1012.7 1012.6 0.0
01/09:00am 32.0 34.0 24.6 65 5.2 SW 22 28 12 15 1012.7 1012.6 0.0
01/08:30am 31.8 34.3 24.7 66 5.0 SW 20 26 11 14 1012.8 1012.7 0.0
01/08:00am 31.2 33.0 23.6 64 5.3 SW 20 24 11 13 1012.7 1012.6 0.0
01/07:30am 30.8 33.0 24.0 67 4.7 SW 19 24 10 13 1012.6 1012.5 0.0
01/07:00am 30.4 32.3 23.8 68 4.6 WSW 20 22 11 12 1012.4 1012.3 0.0
01/06:30am 30.0 31.6 22.9 65 4.9 WSW 19 20 10 11 1012.4 1012.3 0.0
01/06:00am 29.6 31.4 22.6 66 4.8 W 17 20 9 11 1012.2 1012.1 0.0
01/05:30am 29.4 31.1 22.4 66 4.7 WSW 17 19 9 10 1011.9 1011.8 0.0
01/05:00am 29.4 31.4 22.9 68 4.4 WSW 17 20 9 11 1011.6 1011.5 0.0
01/04:30am 29.4 31.5 22.4 66 4.7 W 15 17 8 9 1011.4 1011.3 0.0
01/04:00am 29.1 31.5 22.3 66 4.6 W 13 15 7 8 1011.3 1011.2 0.0
01/03:30am 29.2 31.2 22.2 66 4.7 W 15 17 8 9 1011.0 1010.9 0.0
01/03:00am 29.1 31.5 22.3 66 4.6 W 13 15 7 8 1010.8 1010.7 0.0
01/02:30am 29.2 31.8 22.7 68 4.4 WSW 13 17 7 9 1010.6 1010.5 0.0
01/02:00am 29.1 32.2 22.8 69 4.3 WSW 11 15 6 8 1010.7 1010.6 0.0
01/01:30am 28.9 32.1 22.4 68 4.4 W 9 11 5 6 1010.8 1010.7 0.0
01/01:00am 28.7 31.7 23.4 73 3.6 W 13 13 7 7 1010.9 1010.8 0.0
01/12:30am 28.3 32.5 23.4 75 3.4 W 7 9 4 5 1011.3 1011.2 0.0
01/12:00am 28.2 31.9 23.3 75 3.4 W 9 11 5 6 1011.5 1011.4 0.0
 
Date/Time
WST
Temp
°C
App
Temp
°C
Dew
Point
Rel
Hum
%
Delta-T
°C
Wind Press
QNH
hPa
Press
MSL
hPa
Rain
since 9 am
mm
Dir
 
Spd
km/h
Gust
km/h
Spd
kts
Gust
kts
30/11:30pm 28.6 32.7 23.9 75 3.2 W 9 11 5 6 1011.6 1011.5 0.0
30/11:00pm 28.7 32.7 23.8 75 3.4 WSW 9 11 5 6 1011.9 1011.8 0.0
30/10:30pm 28.6 33.0 24.4 78 2.9 W 9 11 5 6 1012.1 1012.0 0.0
30/10:00pm 28.7 33.6 24.7 79 2.8 WNW 7 9 4 5 1012.4 1012.3 0.0
30/09:30pm 28.9 34.2 24.9 79 2.8 WNW 6 7 3 4 1012.4 1012.3 0.0
30/09:00pm 28.9 33.7 24.5 77 3.1 W 7 9 4 5 1012.4 1012.3 0.0
30/08:30pm 28.9 32.9 23.8 74 3.5 WNW 9 9 5 5 1012.4 1012.3 0.0
30/08:00pm 29.4 33.2 24.0 72 3.7 WNW 11 13 6 7 1012.2 1012.1 0.0
30/07:30pm 29.0 32.3 23.2 71 4.0 NW 11 11 6 6 1012.0 1011.9 0.0
30/07:00pm 29.3 32.6 22.5 67 4.6 NNW 9 11 5 6 1011.3 1011.2 0.0
30/06:30pm 29.5 32.0 22.5 66 4.8 NNW 13 15 7 8 1010.8 1010.7 0.0
30/06:00pm 30.1 32.5 23.0 65 4.9 NW 15 17 8 9 1010.5 1010.4 0.0
30/05:30pm 30.4 32.5 23.1 65 5.0 WNW 17 19 9 10 1010.3 1010.2 0.0
30/05:00pm 31.0 33.1 23.1 63 5.4 WNW 17 20 9 11 1010.2 1010.1 0.0
30/04:30pm 31.8 33.6 22.5 58 6.4 WNW 17 19 9 10 1009.8 1009.7 0.0
30/04:00pm 32.4 33.8 21.9 54 7.1 WNW 17 19 9 10 1009.4 1009.3 0.0
30/03:30pm 32.4 34.2 21.9 54 7.1 NW 15 19 8 10 1009.2 1009.1 0.0
30/03:00pm 32.7 34.5 21.2 50 7.8 WNW 13 15 7 8 1009.4 1009.3 0.0
30/02:30pm 32.9 35.5 22.0 52 7.4 WNW 11 15 6 8 1009.6 1009.5 0.0
30/02:00pm 32.7 35.4 22.8 56 6.8 W 13 15 7 8 1009.9 1009.8 0.0
30/01:30pm 33.0 36.5 23.6 57 6.5 WNW 11 13 6 7 1010.2 1010.1 0.0
30/01:00pm 32.7 36.2 22.8 56 6.8 WNW 9 13 5 7 1010.6 1010.5 0.0
30/12:30pm 32.8 36.4 22.3 54 7.2 W 7 11 4 6 1010.9 1010.8 0.0
30/12:00pm 33.0 36.9 23.0 55 6.9 W 7 11 4 6 1011.3 1011.2 0.0
30/11:30am 31.4 35.2 22.7 60 6.0 SW 7 11 4 6 1011.8 1011.7 0.0
30/11:00am 32.7 37.0 23.3 57 6.5 NE 6 11 3 6 1012.2 1012.1 0.0
30/10:30am 32.6 36.4 23.5 58 6.3 SW 9 11 5 6 1012.5 1012.4 0.0
30/10:00am 32.1 36.2 23.3 59 6.1 SW 7 11 4 6 1012.9 1012.8 0.0
30/09:30am 31.8 35.4 23.1 60 6.0 SSW 9 13 5 7 1013.1 1013.0 0.0
30/09:00am 31.5 34.7 23.1 61 5.8 SSW 11 13 6 7 1013.2 1013.1 0.0
30/08:30am 31.4 34.9 23.5 63 5.5 SSW 11 13 6 7 1013.1 1013.0 0.0
30/08:00am 30.8 34.4 23.7 66 4.9 SSW 11 15 6 8 1013.2 1013.1 0.0
30/07:30am 30.9 35.2 24.3 68 4.6 SW 9 13 5 7 1013.0 1012.9 0.0
30/07:00am 30.3 33.6 23.2 65 4.9 SSW 11 13 6 7 1012.9 1012.8 0.0
30/06:30am 29.5 33.3 23.4 69 4.2 WSW 9 13 5 7 1012.6 1012.5 0.0
30/06:00am 28.9 32.8 23.6 73 3.6 WSW 9 13 5 7 1012.5 1012.4 0.0
30/05:30am 28.8 32.3 23.5 73 3.6 SW 11 13 6 7 1012.1 1012.0 0.0
30/05:00am 28.8 32.5 23.9 75 3.4 W 11 15 6 8 1011.7 1011.6 0.0
30/04:30am 28.6 32.4 23.5 74 3.5 W 9 13 5 7 1011.5 1011.4 0.0
30/04:00am 28.9 32.2 23.8 74 3.5 WSW 13 15 7 8 1011.5 1011.4 0.0
30/03:30am 28.8 32.0 23.7 74 3.5 WSW 13 15 7 8 1011.4 1011.3 0.0
30/03:00am 28.7 32.6 23.6 74 3.5 WSW 9 11 5 6 1011.4 1011.3 0.0
30/02:30am 28.6 32.4 23.5 74 3.5 W 9 11 5 6 1011.2 1011.1 0.0
30/02:00am 28.6 32.6 23.7 75 3.4 W 9 11 5 6 1011.1 1011.0 0.0
30/01:30am 28.5 32.6 23.9 76 3.2 WNW 9 11 5 6 1011.2 1011.1 0.0
30/01:00am 28.2 32.2 23.8 77 3.0 WNW 9 11 5 6 1011.3 1011.2 0.0
30/12:30am 28.2 32.7 24.0 78 2.9 WNW 7 9 4 5 1011.6 1011.5 0.0
30/12:00am 28.5 33.2 24.3 78 2.9 WNW 7 9 4 5 1011.8 1011.7 0.0
 
Date/Time
WST
Temp
°C
App
Temp
°C
Dew
Point
Rel
Hum
%
Delta-T
°C
Wind Press
QNH
hPa
Press
MSL
hPa
Rain
since 9 am
mm
Dir
 
Spd
km/h
Gust
km/h
Spd
kts
Gust
kts
29/11:30pm 28.5 32.7 24.1 77 3.0 WNW 9 9 5 5 1012.2 1012.1 0.0
29/11:00pm 28.8 33.3 24.6 78 2.9 WNW 9 13 5 7 1012.4 1012.3 0.0
29/10:30pm 29.0 32.4 24.1 75 3.4 W 13 15 7 8 1012.5 1012.4 0.0
29/10:00pm 29.1 32.9 24.0 74 3.5 W 11 13 6 7 1012.7 1012.6 0.0
29/09:30pm 29.3 33.1 24.0 73 3.7 W 11 13 6 7 1012.9 1012.8 0.0
29/09:00pm 29.2 32.9 23.9 73 3.7 W 11 13 6 7 1013.1 1013.0 0.0
29/08:30pm 29.4 32.8 23.4 70 4.1 W 11 13 6 7 1012.8 1012.7 0.0
29/08:00pm 29.4 32.8 24.0 72 3.7 W 13 15 7 8 1012.6 1012.5 0.0
29/07:30pm 29.5 33.2 23.9 72 3.9 WSW 11 13 6 7 1012.2 1012.1 0.0
29/07:00pm 29.4 33.3 23.6 71 4.0 WSW 9 11 5 6 1011.8 1011.7 0.0
29/06:30pm 29.6 32.6 23.3 69 4.3 WSW 13 15 7 8 1011.4 1011.3 0.0
29/06:00pm 29.8 32.6 23.0 67 4.7 WSW 13 15 7 8 1011.2 1011.1 0.0
29/05:30pm 30.0 32.9 23.2 67 4.7 WSW 13 15 7 8 1010.8 1010.7 0.0
29/05:00pm 30.5 33.2 22.9 64 5.2 W 13 17 7 9 1010.7 1010.6 0.0
29/04:30pm 31.2 33.7 22.5 60 5.9 W 13 15 7 8 1010.4 1010.3 0.0
29/04:00pm 31.8 34.3 22.5 58 6.4 W 13 15 7 8 1010.2 1010.1 0.0
29/03:30pm 32.1 34.6 22.5 57 6.6 W 13 17 7 9 1010.1 1010.0 0.0
29/03:00pm 32.1 34.6 22.5 57 6.6 W 13 17 7 9 1010.0 1009.9 0.0
29/02:30pm 32.4 35.5 23.6 59 6.1 W 13 17 7 9 1010.0 1009.9 0.0
29/02:00pm 32.4 35.7 23.9 61 5.9 W 13 17 7 9 1010.2 1010.1 0.0
29/01:30pm 32.2 35.1 23.2 59 6.2 WNW 13 17 7 9 1010.5 1010.4 0.0
29/01:00pm 32.2 34.8 22.6 57 6.6 W 13 17 7 9 1010.8 1010.7 0.0
29/12:30pm 32.8 35.8 23.4 57 6.5 W 13 19 7 10 1011.2 1011.1 0.0
29/12:00pm 32.4 35.3 23.1 58 6.4 WNW 13 17 7 9 1011.7 1011.6 0.0
29/11:30am 32.4 35.8 23.4 59 6.2 WNW 11 17 6 9 1012.0 1011.9 0.0
29/11:00am 32.4 35.6 23.1 58 6.4 W 11 13 6 7 1012.5 1012.4 0.0
29/10:30am 32.0 35.7 23.3 60 6.0 W 9 13 5 7 1012.9 1012.8 0.0
29/10:00am 32.1 35.6 22.8 58 6.4 WNW 9 11 5 6 1013.3 1013.2 0.0
29/09:30am 31.6 34.9 22.6 59 6.2 WSW 9 13 5 7 1013.5 1013.4 0.0

Other Formats:

Comma delimited format used in spreadsheet applications
http://www.bom.gov.au/fwo/IDW60801/IDW60801.94102.axf

JavaScript Object Notation format (JSON) in row-major order
http://www.bom.gov.au/fwo/IDW60801/IDW60801.94102.json